Time;durP1;ratioP1;P1;durP2;ratioP2;P2;SDS_P1;SDS_P2;PMS_P1;PMS_P2;Temp;Humidity;BMP_temperature;BMP_pressure;BME280_temperature;BME280_humidity;BME280_pressure;Samples;Min_cycle;Max_cycle;Signal;HPM_P1;HPM_P2
2023/05/29 00:00:21;;;;;;;19.02;3.20;;;8.50;99.90;;;;;;5135629;27;20031;-59
2023/05/29 00:02:50;;;;;;;22.50;3.17;;;10.10;99.90;;;;;;5137234;27;20039;-60
2023/05/29 00:05:17;;;;;;;15.88;2.67;;;7.90;99.90;;;;;;5135176;27;20380;-60
2023/05/29 00:07:43;;;;;;;15.73;2.67;;;7.90;99.90;;;;;;5135105;27;20054;-60
2023/05/29 00:10:10;;;;;;;21.83;3.70;;;8.40;99.90;;;;;;5136732;27;20426;-60
2023/05/29 00:12:37;;;;;;;19.50;3.17;;;8.00;99.90;;;;;;5115927;27;20049;-60
2023/05/29 00:15:03;;;;;;;24.50;3.72;;;8.10;99.90;;;;;;5136464;27;20051;-61
2023/05/29 00:17:32;;;;;;;19.75;2.95;;;7.90;99.90;;;;;;5118163;27;20088;-60
2023/05/29 00:19:58;;;;;;;19.73;2.88;;;7.90;99.90;;;;;;5134676;27;20042;-60
2023/05/29 00:22:25;;;;;;;17.63;3.40;;;8.30;99.90;;;;;;5114627;27;20058;-60
2023/05/29 00:24:51;;;;;;;22.05;3.65;;;8.50;99.90;;;;;;5134538;27;20440;-61
2023/05/29 00:27:17;;;;;;;19.95;4.03;;;7.70;99.90;;;;;;5135017;27;20347;-60
2023/05/29 00:29:42;;;;;;;17.80;2.70;;;9.40;99.90;;;;;;5116024;27;20474;-60
2023/05/29 00:32:08;;;;;;;17.27;2.53;;;7.80;99.90;;;;;;5134723;27;20053;-60
2023/05/29 00:34:34;;;;;;;15.18;3.22;;;7.80;99.90;;;;;;5136232;27;20047;-60
2023/05/29 00:36:59;;;;;;;19.63;4.55;;;7.70;99.90;;;;;;5136154;27;20110;-60
2023/05/29 00:39:25;;;;;;;16.67;2.60;;;7.80;99.90;;;;;;5134122;27;20039;-60
2023/05/29 00:41:51;;;;;;;16.95;3.38;;;7.90;99.90;;;;;;5134083;27;20167;-60
2023/05/29 00:44:21;;;;;;;22.10;2.80;;;7.70;99.90;;;;;;5136179;27;20339;-60
2023/05/29 00:46:50;;;;;;;15.95;3.22;;;7.90;99.90;;;;;;5137456;27;20038;-60
2023/05/29 00:49:16;;;;;;;20.48;3.22;;;7.80;99.90;;;;;;5134372;27;20047;-60
2023/05/29 00:51:43;;;;;;;20.25;3.08;;;9.60;99.90;;;;;;5134532;27;20045;-59
2023/05/29 00:54:12;;;;;;;21.48;3.30;;;7.60;99.90;;;;;;5134307;27;21158;-59
2023/05/29 00:56:44;;;;;;;19.92;3.42;;;7.70;99.90;;;;;;5134199;27;20414;-59
2023/05/29 00:59:11;;;;;;;;;;;7.70;99.90;;;;;;5135093;27;20069;-59
2023/05/29 01:01:37;;;;;;;19.83;2.75;;;7.50;99.90;;;;;;5133515;27;20311;-60
2023/05/29 01:04:08;;;;;;;16.58;3.30;;;7.50;99.90;;;;;;5133194;27;20133;-60
2023/05/29 01:06:35;;;;;;;19.70;3.10;;;7.70;99.90;;;;;;5134218;27;20050;-60
2023/05/29 01:09:01;;;;;;;25.52;3.95;;;7.70;99.90;;;;;;5134161;27;20035;-61
2023/05/29 01:12:00;;;;;;;18.08;3.22;;;7.80;99.90;;;;;;5135067;27;20039;-61
2023/05/29 01:14:51;;;;;;;19.52;2.92;;;7.60;99.90;;;;;;5134681;27;20046;-60
2023/05/29 01:17:31;;;;;;;18.85;2.72;;;7.70;99.90;;;;;;5136706;27;20538;-60
2023/05/29 01:20:05;;;;;;;20.88;3.10;;;7.50;99.90;;;;;;5133099;27;20050;-60
2023/05/29 01:22:39;;;;;;;25.90;3.67;;;7.80;99.90;;;;;;5134289;27;20138;-60
2023/05/29 01:25:16;;;;;;;20.65;3.65;;;7.70;99.90;;;;;;5133388;27;20419;-60
2023/05/29 01:27:44;;;;;;;19.33;3.70;;;7.70;99.90;;;;;;5116433;27;20406;-60
2023/05/29 01:30:12;;;;;;;23.10;3.67;;;7.60;99.90;;;;;;5134225;27;20055;-61
2023/05/29 01:32:39;;;;;;;19.38;2.95;;;7.90;99.90;;;;;;5132766;27;20081;-60
2023/05/29 01:35:05;;;;;;;18.15;3.85;;;7.70;99.90;;;;;;5133021;27;20102;-61
2023/05/29 01:37:31;;;;;;;20.48;3.30;;;7.70;99.90;;;;;;5133485;27;20561;-60
2023/05/29 01:39:57;;;;;;;16.17;3.38;;;7.60;99.90;;;;;;5134269;27;20044;-60
2023/05/29 01:42:23;;;;;;;14.35;3.13;;;7.40;99.90;;;;;;5132921;27;20385;-60
2023/05/29 01:44:49;;;;;;;17.05;2.55;;;7.60;99.90;;;;;;5114110;27;20043;-59
2023/05/29 01:47:16;;;;;;;13.77;2.92;;;7.50;99.90;;;;;;5134580;27;20090;-59
2023/05/29 01:49:42;;;;;;;23.80;4.28;;;8.50;99.90;;;;;;5134443;27;20038;-60
2023/05/29 01:52:08;;;;;;;17.02;3.28;;;8.60;99.90;;;;;;5114939;27;20052;-60
2023/05/29 01:54:34;;;;;;;19.35;3.10;;;7.60;99.90;;;;;;5132583;27;20038;-59
2023/05/29 01:57:02;;;;;;;20.83;4.18;;;7.80;99.90;;;;;;5133393;27;20039;-60
2023/05/29 01:59:28;;;;;;;16.02;3.35;;;9.50;99.90;;;;;;5134079;27;20449;-60
2023/05/29 02:01:54;;;;;;;17.17;2.92;;;7.80;99.90;;;;;;5131503;27;20475;-60
2023/05/29 02:04:19;;;;;;;17.17;3.10;;;8.70;99.90;;;;;;5131458;27;20041;-60
2023/05/29 02:06:45;;;;;;;22.63;4.65;;;8.10;99.90;;;;;;5132190;27;20035;-59
2023/05/29 02:09:11;;;;;;;19.08;3.33;;;7.60;99.90;;;;;;5133921;27;20039;-60
2023/05/29 02:11:37;;;;;;;19.65;2.42;;;8.20;99.90;;;;;;5133968;27;20042;-60
2023/05/29 02:14:04;;;;;;;16.45;3.72;;;7.80;99.90;;;;;;5133661;27;20118;-60
2023/05/29 02:16:33;;;;;;;22.73;3.42;;;8.90;99.90;;;;;;5133342;27;20632;-58
2023/05/29 02:18:59;;;;;;;17.48;3.08;;;7.80;99.90;;;;;;5133861;27;20151;-61
2023/05/29 02:21:25;;;;;;;19.08;3.33;;;8.10;99.90;;;;;;5132201;27;20045;-60
2023/05/29 02:23:51;;;;;;;16.92;3.05;;;8.30;99.90;;;;;;5112749;27;20031;-59
2023/05/29 02:26:17;;;;;;;24.98;4.60;;;7.50;99.90;;;;;;5131797;27;20137;-60
2023/05/29 02:28:42;;;;;;;14.40;2.90;;;7.80;99.90;;;;;;5133251;27;20043;-58
2023/05/29 02:31:08;;;;;;;19.48;3.80;;;9.30;99.90;;;;;;5132762;27;20046;-59
2023/05/29 02:33:34;;;;;;;24.45;3.55;;;7.60;99.90;;;;;;5131640;27;20042;-59
2023/05/29 02:36:00;;;;;;;19.48;3.60;;;7.60;99.90;;;;;;5133155;27;20034;-59
2023/05/29 02:38:25;;;;;;;17.00;3.55;;;8.50;99.90;;;;;;5133457;27;20063;-59
2023/05/29 02:40:51;;;;;;;16.95;3.45;;;7.60;99.90;;;;;;5134362;27;20066;-60
2023/05/29 02:43:17;;;;;;;16.80;3.28;;;7.70;99.90;;;;;;5132741;27;20521;-60
2023/05/29 02:45:43;;;;;;;19.60;3.25;;;7.40;99.90;;;;;;5132778;27;20041;-60
2023/05/29 02:48:08;;;;;;;19.80;3.53;;;7.50;99.90;;;;;;5135684;27;20107;-60
2023/05/29 02:50:34;;;;;;;24.38;4.55;;;8.30;99.90;;;;;;5131587;27;20410;-60
2023/05/29 02:53:00;;;;;;;14.88;3.58;;;8.20;99.90;;;;;;5132961;27;20046;-60
2023/05/29 02:55:26;;;;;;;19.80;3.35;;;7.80;99.90;;;;;;5133015;27;20043;-60
2023/05/29 02:57:54;;;;;;;16.95;2.78;;;7.10;99.90;;;;;;5115588;27;20088;-60
2023/05/29 03:00:20;;;;;;;17.70;2.90;;;8.40;99.90;;;;;;5133134;27;20053;-60
2023/05/29 03:02:46;;;;;;;20.98;3.88;;;7.90;99.90;;;;;;5133173;27;20058;-59
2023/05/29 03:05:12;;;;;;;13.63;2.65;;;8.50;99.90;;;;;;5131566;27;20139;-60
2023/05/29 03:07:38;;;;;;;18.23;3.00;;;8.20;99.90;;;;;;5133012;27;21253;-60
2023/05/29 03:10:04;;;;;;;16.92;3.25;;;8.00;99.90;;;;;;5113561;27;20035;-60
2023/05/29 03:12:29;;;;;;;16.83;3.03;;;8.00;99.90;;;;;;5132019;27;20395;-60
2023/05/29 03:14:56;;;;;;;16.65;3.03;;;8.00;99.90;;;;;;5113924;27;20861;-59
2023/05/29 03:17:22;;;;;;;15.07;3.38;;;8.30;99.90;;;;;;5134240;27;20114;-60
2023/05/29 03:19:47;;;;;;;16.65;2.92;;;8.40;99.90;;;;;;5131246;27;20126;-60
2023/05/29 03:22:13;;;;;;;17.25;3.47;;;8.30;99.90;;;;;;5131196;27;20043;-60
2023/05/29 03:24:39;;;;;;;20.23;3.47;;;9.00;99.90;;;;;;5132550;27;20047;-59
2023/05/29 03:27:05;;;;;;;18.55;2.95;;;8.20;99.90;;;;;;5130896;27;20050;-60
2023/05/29 03:29:32;;;;;;;14.02;2.90;;;8.30;99.90;;;;;;5132822;27;20315;-60
2023/05/29 03:31:58;;;;;;;16.52;2.65;;;8.70;99.90;;;;;;5131729;27;20129;-60
2023/05/29 03:34:24;;;;;;;19.08;3.28;;;8.40;99.90;;;;;;5135019;27;20134;-59
2023/05/29 03:36:49;;;;;;;17.23;2.83;;;8.80;99.90;;;;;;5135215;27;20083;-60
2023/05/29 03:39:15;;;;;;;14.50;2.50;;;8.60;99.90;;;;;;5136610;27;20481;-60
2023/05/29 03:41:41;;;;;;;18.08;2.60;;;8.70;99.90;;;;;;5135498;27;20078;-60
2023/05/29 03:44:07;;;;;;;15.68;3.30;;;8.60;99.90;;;;;;5135068;27;20126;-60
2023/05/29 03:46:33;;;;;;;15.23;3.65;;;8.60;99.90;;;;;;5135231;27;20829;-59
2023/05/29 03:48:59;;;;;;;14.73;3.10;;;10.50;99.90;;;;;;5137154;27;20038;-60
2023/05/29 03:51:24;;;;;;;15.02;2.47;;;8.70;99.90;;;;;;5135475;27;20035;-60
2023/05/29 03:53:50;;;;;;;18.65;3.58;;;9.60;99.90;;;;;;5116347;27;20045;-61
2023/05/29 03:56:16;;;;;;;21.88;3.33;;;8.80;99.90;;;;;;5134768;27;20031;-58
2023/05/29 03:58:41;;;;;;;20.27;3.03;;;8.80;99.90;;;;;;5135103;27;20058;-60
2023/05/29 04:01:09;;;;;;;19.23;3.35;;;8.80;99.90;;;;;;5136700;27;20035;-60
2023/05/29 04:03:34;;;;;;;14.38;2.97;;;8.90;99.90;;;;;;5135146;27;20074;-60
2023/05/29 04:06:00;;;;;;;12.18;3.22;;;9.80;99.90;;;;;;5135516;27;20558;-60
2023/05/29 04:08:26;;;;;;;16.52;2.50;;;8.70;99.90;;;;;;5135851;27;20046;-59
2023/05/29 04:10:53;;;;;;;18.20;2.95;;;8.70;99.90;;;;;;5136365;27;20046;-60
2023/05/29 04:13:20;;;;;;;15.48;2.63;;;8.80;99.90;;;;;;5136376;27;20881;-59
2023/05/29 04:15:46;;;;;;;17.27;3.03;;;9.00;99.90;;;;;;5135803;27;20555;-60
2023/05/29 04:18:12;;;;;;;13.60;2.50;;;9.00;99.90;;;;;;5118747;27;20034;-59
2023/05/29 04:20:37;;;;;;;16.60;3.17;;;9.60;99.90;;;;;;5135383;27;20064;-60
2023/05/29 04:23:03;;;;;;;18.63;3.63;;;10.10;99.90;;;;;;5116679;27;20041;-59
2023/05/29 04:25:29;;;;;;;21.48;3.60;;;8.90;99.90;;;;;;5133643;27;20046;-59
2023/05/29 04:27:55;;;;;;;31.23;4.07;;;9.10;99.90;;;;;;5134416;27;20072;-59
2023/05/29 04:30:21;;;;;;;14.13;2.92;;;9.10;99.90;;;;;;5134887;27;20050;-59
2023/05/29 04:32:47;;;;;;;17.02;3.00;;;9.20;99.90;;;;;;5134173;27;20306;-60
2023/05/29 04:35:13;;;;;;;14.13;3.17;;;9.30;99.90;;;;;;5115274;27;20034;-59
2023/05/29 04:37:39;;;;;;;20.30;4.10;;;9.30;99.90;;;;;;5135246;27;20047;-60
2023/05/29 04:40:10;;;;;;;15.65;2.88;;;9.30;99.90;;;;;;5134689;27;20965;-60
2023/05/29 04:42:42;;;;;;;14.95;2.90;;;9.30;99.90;;;;;;5135078;27;20031;-60
2023/05/29 04:45:10;;;;;;;13.98;2.50;;;9.30;99.90;;;;;;5116099;27;20047;-60
2023/05/29 04:47:42;;;;;;;13.65;3.03;;;9.30;99.90;;;;;;5135715;27;20121;-60
2023/05/29 04:50:10;;;;;;;14.40;2.92;;;9.40;99.90;;;;;;5134789;27;20991;-59
2023/05/29 04:52:37;;;;;;;20.98;4.20;;;9.40;99.90;;;;;;5132451;27;20039;-59
2023/05/29 04:55:03;;;;;;;14.73;2.75;;;9.40;99.90;;;;;;5134080;27;20111;-59
2023/05/29 04:57:29;;;;;;;10.65;2.50;;;9.20;99.90;;;;;;5135493;27;20077;-59
2023/05/29 04:59:54;;;;;;;15.30;3.45;;;9.70;99.90;;;;;;5114304;27;20815;-60
2023/05/29 05:02:20;;;;;;;17.13;2.38;;;9.50;99.90;;;;;;5134588;27;20031;-59
2023/05/29 05:04:46;;;;;;;22.83;3.33;;;9.40;99.90;;;;;;5133297;27;20044;-59
2023/05/29 05:07:13;;;;;;;16.17;3.10;;;9.20;99.90;;;;;;5135170;27;20096;-59
2023/05/29 05:09:38;;;;;;;14.02;2.97;;;9.70;99.90;;;;;;5134002;27;20034;-59
2023/05/29 05:12:05;;;;;;;14.20;2.47;;;9.50;99.90;;;;;;5134441;27;20519;-60
2023/05/29 05:14:31;;;;;;;14.20;2.78;;;9.80;99.90;;;;;;5135092;27;20058;-60
2023/05/29 05:16:56;;;;;;;19.02;3.33;;;9.80;99.90;;;;;;5135821;27;20391;-60
2023/05/29 05:19:22;;;;;;;17.52;3.70;;;9.90;99.90;;;;;;5135817;27;20099;-59
2023/05/29 05:21:48;;;;;;;16.63;3.30;;;10.00;99.90;;;;;;5134566;27;20117;-59
2023/05/29 05:24:14;;;;;;;17.83;2.97;;;10.10;99.90;;;;;;5115683;27;20039;-60
2023/05/29 05:26:40;;;;;;;15.43;3.15;;;10.20;99.90;;;;;;5135087;27;20297;-59
2023/05/29 05:29:05;;;;;;;17.10;3.13;;;10.20;99.90;;;;;;5132926;27;20059;-59
2023/05/29 05:31:31;;;;;;;17.25;3.22;;;10.20;99.90;;;;;;5133521;27;20039;-59
2023/05/29 05:33:57;;;;;;;22.20;3.45;;;10.50;99.90;;;;;;5134163;27;20444;-60
2023/05/29 05:36:23;;;;;;;17.23;3.25;;;10.60;99.90;;;;;;5133798;27;20027;-59
2023/05/29 05:38:49;;;;;;;15.43;3.30;;;10.60;99.90;;;;;;5115086;27;20031;-59
2023/05/29 05:41:14;;;;;;;13.07;2.58;;;10.70;99.90;;;;;;5116284;27;20043;-60
2023/05/29 05:43:40;;;;;;;15.63;2.97;;;10.90;99.90;;;;;;5133802;27;20042;-60
2023/05/29 05:46:06;;;;;;;14.63;3.28;;;10.70;99.90;;;;;;5133459;27;20057;-59
2023/05/29 05:48:32;;;;;;;21.63;4.03;;;11.00;99.90;;;;;;5134094;27;20113;-60
2023/05/29 05:50:57;;;;;;;17.05;3.17;;;10.90;99.90;;;;;;5134245;27;20038;-59
2023/05/29 05:53:24;;;;;;;19.85;3.35;;;11.00;99.90;;;;;;5133590;27;20049;-59
2023/05/29 05:55:49;;;;;;;18.90;3.97;;;11.20;99.90;;;;;;5132445;27;20061;-60
2023/05/29 05:58:15;;;;;;;17.65;3.88;;;11.20;99.90;;;;;;5113962;27;20553;-59
2023/05/29 06:00:42;;;;;;;19.65;4.90;;;11.10;99.90;;;;;;5115377;27;20035;-60
2023/05/29 06:03:08;;;;;;;19.70;4.60;;;11.30;99.90;;;;;;5112270;27;20364;-59
2023/05/29 06:05:36;;;;;;;16.95;3.03;;;11.20;99.90;;;;;;5132099;27;20049;-60
2023/05/29 06:08:02;;;;;;;19.40;3.30;;;11.40;99.90;;;;;;5132860;27;20047;-60
2023/05/29 06:10:27;;;;;;;14.73;2.78;;;11.20;99.90;;;;;;5132603;27;20101;-60
2023/05/29 06:12:53;;;;;;;18.00;3.47;;;11.30;99.90;;;;;;5132101;27;20039;-59
2023/05/29 06:15:19;;;;;;;22.02;3.95;;;11.20;99.90;;;;;;5114237;27;20110;-59
2023/05/29 06:17:45;;;;;;;18.95;3.63;;;11.70;99.90;;;;;;5132624;27;20438;-60
2023/05/29 06:20:11;;;;;;;12.85;2.80;;;12.10;99.90;;;;;;5132679;27;20038;-59
2023/05/29 06:22:37;;;;;;;17.55;3.53;;;11.70;99.90;;;;;;5132438;27;20685;-59
2023/05/29 06:25:04;;;;;;;17.00;2.90;;;11.70;99.90;;;;;;5130893;27;20132;-59
2023/05/29 06:27:30;;;;;;;22.38;3.50;;;11.80;99.90;;;;;;5132874;27;20452;-60
2023/05/29 06:29:56;;;;;;;16.65;3.53;;;11.80;99.90;;;;;;5113664;27;20038;-59
2023/05/29 06:32:22;;;;;;;18.65;4.05;;;11.70;99.90;;;;;;5131157;27;20644;-59
2023/05/29 06:34:47;;;;;;;21.85;4.25;;;11.60;99.90;;;;;;5133768;27;20031;-59
2023/05/29 06:37:13;;;;;;;17.90;3.40;;;11.70;99.90;;;;;;5114791;27;20398;-60
2023/05/29 06:39:41;;;;;;;19.10;3.30;;;11.80;99.90;;;;;;5131520;27;20566;-59
2023/05/29 06:42:08;;;;;;;23.02;3.75;;;11.80;99.90;;;;;;5114803;27;20054;-60
2023/05/29 06:44:34;;;;;;;20.52;4.10;;;11.50;99.90;;;;;;5133602;27;20031;-59
2023/05/29 06:47:00;;;;;;;19.25;3.28;;;11.80;99.90;;;;;;5132946;27;20038;-60
2023/05/29 06:49:25;;;;;;;24.15;4.82;;;12.00;99.90;;;;;;5133192;27;20049;-60
2023/05/29 06:51:51;;;;;;;23.23;4.78;;;11.90;99.90;;;;;;5133024;27;20531;-60
2023/05/29 06:54:17;;;;;;;15.50;3.58;;;11.90;99.90;;;;;;5134942;27;20125;-60
2023/05/29 06:56:43;;;;;;;17.77;3.35;;;11.90;99.90;;;;;;5132374;27;20073;-59
2023/05/29 06:59:09;;;;;;;20.88;4.18;;;12.00;99.90;;;;;;5132776;27;20068;-60
2023/05/29 07:01:35;;;;;;;20.65;4.70;;;12.10;99.90;;;;;;5133024;27;20039;-60
2023/05/29 07:04:01;;;;;;;19.33;4.07;;;12.20;99.90;;;;;;5131146;27;20042;-61
2023/05/29 07:06:26;;;;;;;22.25;3.63;;;12.10;99.90;;;;;;5130070;27;20474;-58
2023/05/29 07:08:52;;;;;;;21.83;3.90;;;12.20;99.90;;;;;;5131272;27;20050;-59
2023/05/29 07:11:18;;;;;;;21.45;3.55;;;12.10;99.90;;;;;;5132033;27;21261;-60
2023/05/29 07:13:44;;;;;;;17.80;3.70;;;12.80;99.90;;;;;;5113239;27;20519;-60
2023/05/29 07:16:09;;;;;;;19.70;3.53;;;13.30;99.90;;;;;;5132619;27;20115;-60
2023/05/29 07:18:35;;;;;;;19.05;3.67;;;13.80;99.90;;;;;;5132852;27;20571;-60
2023/05/29 07:21:01;;;;;;;20.98;4.80;;;13.80;99.90;;;;;;5130700;27;20054;-60
2023/05/29 07:23:27;;;;;;;17.63;3.30;;;13.90;99.90;;;;;;5133787;27;20129;-60
2023/05/29 07:25:54;;;;;;;24.23;4.43;;;13.60;99.90;;;;;;5131625;27;20046;-62
2023/05/29 07:28:20;;;;;;;16.70;3.55;;;13.60;99.90;;;;;;5132606;27;20110;-60
2023/05/29 07:30:45;;;;;;;20.75;3.67;;;13.80;99.90;;;;;;5132798;27;20043;-60
2023/05/29 07:33:11;;;;;;;16.42;3.33;;;14.10;99.90;;;;;;5132152;27;20053;-59
2023/05/29 07:35:37;;;;;;;18.48;3.80;;;14.20;99.90;;;;;;5132281;27;20802;-60
2023/05/29 07:38:03;;;;;;;17.73;3.67;;;14.50;99.90;;;;;;5131627;27;20042;-60
2023/05/29 07:40:28;;;;;;;17.05;3.15;;;14.50;99.90;;;;;;5133248;27;20051;-61
2023/05/29 07:42:54;;;;;;;18.85;3.88;;;15.10;99.90;;;;;;5132482;27;20042;-60
2023/05/29 07:45:20;;;;;;;16.42;2.90;;;15.20;99.90;;;;;;5132860;27;20661;-59
2023/05/29 07:47:46;;;;;;;17.83;3.47;;;15.30;99.90;;;;;;5131953;27;20073;-60
2023/05/29 07:50:14;;;;;;;29.80;5.88;;;15.30;99.90;;;;;;5115375;27;20034;-59
2023/05/29 07:52:39;;;;;;;26.98;5.10;;;15.50;99.90;;;;;;5133310;27;20149;-60
2023/05/29 07:55:05;;;;;;;23.13;4.10;;;15.30;99.90;;;;;;5133127;27;20420;-60
2023/05/29 07:57:31;;;;;;;19.17;4.18;;;15.00;99.90;;;;;;5133842;27;20232;-60
2023/05/29 07:59:57;;;;;;;18.65;4.05;;;14.70;99.90;;;;;;5132050;27;20410;-60
2023/05/29 08:02:23;;;;;;;20.50;4.13;;;14.60;99.90;;;;;;5134330;27;20091;-60
2023/05/29 08:04:49;;;;;;;19.60;3.90;;;14.60;99.90;;;;;;5131327;27;20107;-59
2023/05/29 08:07:14;;;;;;;20.02;3.88;;;14.60;99.90;;;;;;5132581;27;20047;-60
2023/05/29 08:09:40;;;;;;;20.92;4.45;;;14.40;99.90;;;;;;5133480;27;20055;-59
2023/05/29 08:12:06;;;;;;;21.75;3.85;;;14.60;99.90;;;;;;5132684;27;20727;-60
2023/05/29 08:14:32;;;;;;;17.25;3.92;;;14.90;99.90;;;;;;5133420;27;20097;-59
2023/05/29 08:16:58;;;;;;;24.08;4.95;;;14.60;99.90;;;;;;5133108;27;20035;-59
2023/05/29 08:19:24;;;;;;;16.65;3.88;;;14.50;99.90;;;;;;5136664;27;20266;-59
2023/05/29 08:21:50;;;;;;;22.48;3.83;;;14.50;99.90;;;;;;5135903;27;20111;-59
2023/05/29 08:24:16;;;;;;;17.25;4.50;;;14.40;99.90;;;;;;5118393;27;20047;-59
2023/05/29 08:26:43;;;;;;;17.85;3.83;;;14.50;99.90;;;;;;5135503;27;20046;-59
2023/05/29 08:29:09;;;;;;;20.10;3.47;;;14.40;99.90;;;;;;5136007;27;20273;-60
2023/05/29 08:31:35;;;;;;;15.65;3.15;;;14.50;99.90;;;;;;5136581;27;20490;-59
2023/05/29 08:34:01;;;;;;;20.13;3.38;;;14.30;99.90;;;;;;5136122;27;20057;-59
2023/05/29 08:36:27;;;;;;;24.27;3.95;;;14.00;99.90;;;;;;5136289;27;20049;-60
2023/05/29 08:38:53;;;;;;;26.65;6.13;;;14.00;99.90;;;;;;5135319;27;20043;-60
2023/05/29 08:41:48;;;;;;;26.67;5.55;;;14.00;99.90;;;;;;5134919;27;20077;-59
2023/05/29 08:44:15;;;;;;;18.73;3.75;;;14.10;99.90;;;;;;5103808;27;20078;-59
2023/05/29 08:46:43;;;;;;;18.67;3.92;;;13.00;99.90;;;;;;5135371;27;20034;-58
2023/05/29 08:49:10;;;;;;;21.48;4.30;;;14.40;99.90;;;;;;5137725;27;20097;-60
2023/05/29 08:51:40;;;;;;;20.98;4.70;;;13.80;99.90;;;;;;5136059;27;20448;-59
2023/05/29 08:54:06;;;;;;;19.83;4.05;;;13.90;99.90;;;;;;5116985;27;20046;-59
2023/05/29 08:56:34;;;;;;;20.15;3.72;;;13.00;99.90;;;;;;5134558;27;20114;-59
2023/05/29 08:59:02;;;;;;;14.88;3.50;;;13.80;99.90;;;;;;5135541;27;20054;-60
2023/05/29 09:01:29;;;;;;;21.70;3.10;;;13.70;99.90;;;;;;5134781;27;20073;-58
2023/05/29 09:03:54;;;;;;;13.07;3.17;;;13.70;99.90;;;;;;5133577;27;20571;-59
2023/05/29 09:06:25;;;;;;;20.98;3.72;;;13.50;99.90;;;;;;5134358;27;20038;-59
2023/05/29 09:08:52;;;;;;;21.45;3.50;;;13.40;99.90;;;;;;5134968;27;20038;-59
2023/05/29 09:11:17;;;;;;;20.33;3.83;;;13.10;99.90;;;;;;5135502;27;20577;-58
2023/05/29 09:13:43;;;;;;;17.63;3.92;;;12.90;99.90;;;;;;5134385;27;20038;-59
2023/05/29 09:16:09;;;;;;;23.50;4.85;;;12.90;99.90;;;;;;5135371;27;20655;-60
2023/05/29 09:18:35;;;;;;;19.23;3.60;;;13.10;99.90;;;;;;5135055;27;20042;-59
2023/05/29 09:21:10;;;;;;;13.68;3.50;;;12.90;99.90;;;;;;5135829;27;20689;-60
2023/05/29 09:23:36;;;;;;;15.90;2.65;;;13.10;99.90;;;;;;5134748;27;20051;-60
2023/05/29 09:26:03;;;;;;;18.38;3.67;;;13.00;99.90;;;;;;5135434;27;20575;-60
2023/05/29 09:28:31;;;;;;;29.42;4.22;;;12.80;99.90;;;;;;5118442;27;20057;-59
2023/05/29 09:30:57;;;;;;;21.30;4.15;;;13.00;99.90;;;;;;5135018;27;20425;-60
2023/05/29 09:33:22;;;;;;;17.63;3.22;;;13.10;99.90;;;;;;5134835;27;20045;-59
2023/05/29 09:35:50;;;;;;;16.90;3.67;;;13.30;99.90;;;;;;5133678;27;20039;-59
2023/05/29 09:38:17;;;;;;;25.52;4.15;;;13.20;99.90;;;;;;5115701;27;20566;-59
2023/05/29 09:40:46;;;;;;;21.17;3.75;;;13.50;99.90;;;;;;5134195;27;20038;-61
2023/05/29 09:43:16;;;;;;;19.60;4.88;;;13.50;99.90;;;;;;5114035;27;20043;-59
2023/05/29 09:45:47;;;;;;;24.63;3.55;;;13.60;99.90;;;;;;5132413;27;20039;-60
2023/05/29 09:48:15;;;;;;;21.58;4.90;;;13.60;99.90;;;;;;5133509;27;20058;-59
2023/05/29 09:51:01;;;;;;;21.15;4.40;;;13.80;99.90;;;;;;5133826;27;20114;-59
2023/05/29 09:53:28;;;;;;;21.50;3.72;;;13.90;99.90;;;;;;5132660;27;20057;-60
2023/05/29 09:55:56;;;;;;;18.67;3.50;;;13.80;99.90;;;;;;5132122;27;20050;-59
2023/05/29 09:58:23;;;;;;;25.77;4.50;;;13.90;99.90;;;;;;5131458;27;21292;-60
2023/05/29 10:00:51;;;;;;;19.80;4.07;;;14.00;99.90;;;;;;5134327;27;20481;-60
2023/05/29 10:03:17;;;;;;;25.00;4.25;;;14.00;99.90;;;;;;5113148;27;20433;-60
2023/05/29 10:05:47;;;;;;;17.27;3.47;;;13.90;99.90;;;;;;5132813;27;20050;-60
2023/05/29 10:08:14;;;;;;;24.13;4.15;;;14.10;99.90;;;;;;5132383;27;20031;-60
2023/05/29 10:10:53;;;;;;;20.02;3.90;;;14.20;99.90;;;;;;5133115;27;20084;-60
2023/05/29 10:13:23;;;;;;;17.80;4.10;;;14.50;99.90;;;;;;5133030;27;20069;-59
2023/05/29 10:15:51;;;;;;;22.15;3.50;;;14.70;99.90;;;;;;5132214;27;20043;-60
2023/05/29 10:18:28;;;;;;;17.00;3.60;;;16.50;99.90;;;;;;5131626;27;20042;-55
2023/05/29 10:20:58;;;;;;;17.88;3.60;;;15.00;99.90;;;;;;5133465;27;20034;-55
2023/05/29 10:23:25;;;;;;;18.02;4.55;;;14.80;99.90;;;;;;5132787;27;20304;-54
2023/05/29 10:26:04;;;;;;;30.55;4.07;;;14.90;99.90;;;;;;5130865;27;20104;-56
2023/05/29 10:28:30;;;;;;;17.60;3.63;;;15.00;99.90;;;;;;5131939;27;21207;-54
2023/05/29 10:31:04;;;;;;;20.02;3.83;;;15.10;99.90;;;;;;5132511;27;20073;-55
2023/05/29 10:33:51;;;;;;;26.08;4.13;;;15.10;99.90;;;;;;5133205;27;20039;-56
2023/05/29 10:36:21;;;;;;;15.90;3.88;;;15.00;99.90;;;;;;5132772;27;20088;-53
2023/05/29 10:38:48;;;;;;;19.52;4.32;;;15.00;99.90;;;;;;5133217;27;20058;-56
2023/05/29 10:41:26;;;;;;;19.23;3.75;;;14.90;99.90;;;;;;5132918;27;20038;-56
2023/05/29 10:44:02;;;;;;;24.67;4.72;;;15.00;99.90;;;;;;5133297;27;20034;-54
2023/05/29 10:46:47;;;;;;;19.25;3.90;;;15.20;99.90;;;;;;5133215;27;20039;-55
2023/05/29 10:49:20;;;;;;;18.95;3.22;;;15.30;99.90;;;;;;5133308;27;20046;-53
2023/05/29 10:51:47;;;;;;;23.60;3.78;;;15.10;99.90;;;;;;5133022;27;20043;-54
2023/05/29 10:54:21;;;;;;;22.55;3.75;;;15.20;99.90;;;;;;5133426;27;20077;-55
2023/05/29 10:57:01;;;;;;;22.58;3.63;;;15.20;99.90;;;;;;5132851;27;20042;-56
2023/05/29 10:59:28;;;;;;;18.60;3.42;;;15.40;99.90;;;;;;5132298;27;20050;-53
2023/05/29 11:01:55;;;;;;;24.40;4.30;;;15.30;99.90;;;;;;5113567;27;20130;-55
2023/05/29 11:04:21;;;;;;;24.63;4.47;;;15.40;99.90;;;;;;5133594;27;20407;-53
2023/05/29 11:06:47;;;;;;;21.98;4.45;;;15.60;99.90;;;;;;5133922;27;20067;-52
2023/05/29 11:09:30;;;;;;;18.48;3.40;;;15.40;99.90;;;;;;5133680;27;20091;-56
2023/05/29 11:12:25;;;;;;;21.58;3.85;;;15.60;99.90;;;;;;5132997;27;20607;-56
2023/05/29 11:15:09;;;;;;;21.60;3.75;;;15.70;99.90;;;;;;5133327;27;20411;-56
2023/05/29 11:17:38;;;;;;;20.63;3.78;;;15.60;99.90;;;;;;5133744;27;20045;-55
2023/05/29 11:20:06;;;;;;;20.92;3.65;;;15.80;99.90;;;;;;5133811;27;20153;-55
2023/05/29 11:23:07;;;;;;;17.38;3.33;;;16.00;99.90;;;;;;5133222;27;20098;-55
2023/05/29 11:25:35;;;;;;;20.67;2.53;;;16.10;99.90;;;;;;5128270;27;24346;-56
2023/05/29 11:28:03;;;;;;;15.13;3.30;;;15.90;99.90;;;;;;5134444;27;20741;-56
2023/05/29 11:30:29;;;;;;;19.77;3.85;;;15.70;99.90;;;;;;5133447;27;20404;-55
2023/05/29 11:33:01;;;;;;;16.55;3.30;;;15.70;99.90;;;;;;5132547;27;20448;-55
2023/05/29 11:35:31;;;;;;;18.30;3.38;;;15.40;99.90;;;;;;5132579;27;20600;-56
2023/05/29 11:37:57;;;;;;;13.07;2.97;;;15.70;99.90;;;;;;5132618;27;20583;-54
2023/05/29 11:40:23;;;;;;;20.15;3.70;;;15.70;99.90;;;;;;5131121;27;20053;-55
2023/05/29 11:42:50;;;;;;;14.73;3.78;;;16.00;99.90;;;;;;5132712;27;20043;-54
2023/05/29 11:45:21;;;;;;;14.48;3.17;;;16.20;99.90;;;;;;5113084;27;20039;-53
2023/05/29 11:47:58;;;;;;;19.23;3.53;;;16.10;99.90;;;;;;5133155;27;20050;-55
2023/05/29 11:50:29;;;;;;;18.80;3.85;;;16.30;99.90;;;;;;5132491;27;20049;-55
2023/05/29 11:52:57;;;;;;;15.73;3.00;;;16.10;99.90;;;;;;5131639;27;20054;-55
2023/05/29 11:55:23;;;;;;;19.48;3.70;;;16.00;99.90;;;;;;5135101;27;20050;-55
2023/05/29 11:57:50;;;;;;;19.20;3.67;;;16.00;99.90;;;;;;5119110;27;20118;-56
2023/05/29 12:00:18;;;;;;;18.33;4.25;;;15.90;99.90;;;;;;5118265;27;20047;-54
2023/05/29 12:02:46;;;;;;;15.68;3.47;;;15.90;99.90;;;;;;5136139;27;20416;-55
2023/05/29 12:05:15;;;;;;;19.10;4.47;;;16.20;99.90;;;;;;5136324;27;20035;-54
2023/05/29 12:08:09;;;;;;;18.58;3.67;;;16.20;99.90;;;;;;5135924;27;20039;-56
2023/05/29 12:10:35;;;;;;;21.00;3.22;;;16.20;99.90;;;;;;5131896;27;20051;-55
2023/05/29 12:13:01;;;;;;;17.45;3.17;;;16.30;99.90;;;;;;5136307;27;20391;-54
2023/05/29 12:15:27;;;;;;;13.95;2.72;;;16.10;99.90;;;;;;5137450;27;20031;-53
2023/05/29 12:17:54;;;;;;;18.92;3.55;;;15.90;99.90;;;;;;5135698;27;20039;-54
2023/05/29 12:20:23;;;;;;;20.00;3.50;;;16.00;99.90;;;;;;5137125;27;20501;-53
2023/05/29 12:22:49;;;;;;;19.00;3.33;;;15.70;99.90;;;;;;5136164;27;20050;-55
2023/05/29 12:25:20;;;;;;;14.80;3.50;;;14.90;99.90;;;;;;5135714;27;20035;-53
2023/05/29 12:27:47;;;;;;;16.67;4.30;;;15.80;99.90;;;;;;5116832;27;20071;-54
2023/05/29 12:30:19;;;;;;;13.13;3.17;;;16.10;99.90;;;;;;5119066;27;20057;-51
2023/05/29 12:32:47;;;;;;;12.57;3.22;;;16.20;99.90;;;;;;5136648;27;20058;-53
2023/05/29 12:35:18;;;;;;;20.63;4.18;;;16.20;99.90;;;;;;5136908;27;20129;-56
2023/05/29 12:38:05;;;;;;;19.67;3.92;;;16.20;99.90;;;;;;5136501;27;20102;-49
2023/05/29 12:40:34;;;;;;;17.83;3.30;;;16.00;99.90;;;;;;5135421;27;20524;-53
2023/05/29 12:43:02;;;;;;;11.65;3.58;;;15.70;99.90;;;;;;5135474;27;20429;-57